Time;durP1;ratioP1;P1;durP2;ratioP2;P2;SDS_P1;SDS_P2;PMS_P1;PMS_P2;Temp;Humidity;BMP_temperature;BMP_pressure;BME280_temperature;BME280_humidity;BME280_pressure;Samples;Min_cycle;Max_cycle;Signal;HPM_P1;HPM_P2
2022/01/23 00:00:32;;;;;;;;;;;4.20;99.90;;;;;;5065889;28;19909;-68
2022/01/23 00:03:05;;;;;;;;;;;4.20;99.90;;;;;;5066300;28;19954;-68
2022/01/23 00:05:35;;;;;;;;;;;4.20;99.90;;;;;;5066097;28;19999;-68
2022/01/23 00:08:01;;;;;;;;;;;4.20;99.90;;;;;;5065656;28;19908;-68
2022/01/23 00:10:27;;;;;;;;;;;4.20;99.90;;;;;;5066115;28;19936;-68
2022/01/23 00:13:05;;;;;;;;;;;4.10;99.90;;;;;;5065257;28;19931;-68
2022/01/23 00:18:15;;;;;;;;;;;4.20;99.90;;;;;;5065478;28;20115;-68
2022/01/23 00:20:41;;;;;;;;;;;4.10;99.90;;;;;;5065181;28;19912;-68
2022/01/23 00:23:15;;;;;;;;;;;4.20;99.90;;;;;;5065705;28;19944;-68
2022/01/23 00:31:08;;;;;;;;;;;4.20;99.90;;;;;;5065422;28;20160;-68
2022/01/23 00:33:34;;;;;;;;;;;4.10;99.90;;;;;;5065611;28;19913;-68
2022/01/23 00:36:00;;;;;;;;;;;4.10;99.90;;;;;;5065432;28;19932;-67
2022/01/23 00:38:25;;;;;;;;;;;4.20;99.90;;;;;;5065112;28;19908;-68
2022/01/23 00:40:51;;;;;;;;;;;4.20;99.90;;;;;;5065398;28;19913;-68
2022/01/23 00:43:26;;;;;;;;;;;4.20;99.90;;;;;;5065285;28;19909;-69
2022/01/23 00:45:57;;;;;;;;;;;4.20;99.90;;;;;;5065334;28;19932;-68
2022/01/23 00:48:28;;;;;;;;;;;4.20;99.90;;;;;;5065073;28;19909;-69
2022/01/23 00:50:54;;;;;;;;;;;4.10;99.90;;;;;;5065252;28;19908;-68
2022/01/23 00:53:19;;;;;;;;;;;4.10;99.90;;;;;;5065149;28;19917;-68
2022/01/23 00:55:46;;;;;;;;;;;4.20;99.90;;;;;;5065161;28;20004;-68
2022/01/23 00:58:12;;;;;;;;;;;4.10;99.90;;;;;;5064831;28;19908;-68
2022/01/23 01:00:38;;;;;;;;;;;4.20;99.90;;;;;;5064766;28;19951;-68
2022/01/23 01:03:04;;;;;;;;;;;4.10;99.90;;;;;;5065060;28;19917;-68
2022/01/23 01:05:30;;;;;;;;;;;4.10;99.90;;;;;;5064985;28;19909;-68
2022/01/23 01:07:57;;;;;;;;;;;4.10;99.90;;;;;;5064632;28;19947;-68
2022/01/23 01:10:28;;;;;;;;;;;4.10;99.90;;;;;;5064787;28;19909;-67
2022/01/23 01:13:00;;;;;;;;;;;4.20;99.90;;;;;;5064110;28;19909;-69
2022/01/23 01:15:34;;;;;;;;;;;4.10;99.90;;;;;;5064960;28;20019;-68
2022/01/23 01:31:44;;;;;;;;;;;4.10;99.90;;;;;;5064509;28;19947;-72
2022/01/23 01:34:19;;;;;;;;;;;4.10;99.90;;;;;;5064468;28;19908;-72
2022/01/23 01:36:48;;;;;;;;;;;4.00;99.90;;;;;;5064192;28;19909;-70
2022/01/23 01:39:16;;;;;;;;;;;4.00;99.90;;;;;;5064373;28;19909;-70
2022/01/23 01:41:42;;;;;;;;;;;4.10;99.90;;;;;;5064155;28;20274;-70
2022/01/23 01:44:07;;;;;;;;;;;4.10;99.90;;;;;;5064052;28;19916;-71
2022/01/23 01:46:33;;;;;;;;;;;4.10;99.90;;;;;;5063440;28;19963;-70
2022/01/23 01:48:59;;;;;;;;;;;4.10;99.90;;;;;;5064127;28;20017;-71
2022/01/23 01:51:30;;;;;;;;;;;4.10;99.90;;;;;;5064039;28;19955;-71
2022/01/23 01:54:02;;;;;;;;;;;4.10;99.90;;;;;;5064120;28;19913;-70
2022/01/23 01:56:35;;;;;;;;;;;4.20;99.90;;;;;;5063829;28;20405;-72
2022/01/23 02:09:44;;;;;;;;;;;4.00;99.90;;;;;;5010925;28;19988;-70
2022/01/23 02:12:35;;;;;;;;;;;4.00;99.90;;;;;;5021146;28;19988;-70
2022/01/23 02:50:59;;;;;;;;;;;4.00;99.90;;;;;;5063154;28;19915;-68
2022/01/23 02:55:57;;;;;;;;;;;4.00;99.90;;;;;;5063209;28;19909;-69
2022/01/23 02:58:25;;;;;;;;;;;4.00;99.90;;;;;;5061662;28;19984;-69
2022/01/23 03:01:08;;;;;;;;;;;4.00;99.90;;;;;;5062895;28;19972;-68
2022/01/23 03:03:38;;;;;;;;;;;4.00;99.90;;;;;;5062992;28;20204;-68
2022/01/23 03:14:49;;;;;;;;;;;4.00;99.90;;;;;;5062256;28;19909;-68
2022/01/23 03:29:55;;;;;;;;;;;4.00;99.90;;;;;;5062613;28;19916;-71
2022/01/23 03:32:40;;;;;;;;;;;4.00;99.90;;;;;;5062751;28;20200;-71
2022/01/23 03:35:06;;;;;;;;;;;4.00;99.90;;;;;;5062633;28;19908;-70
2022/01/23 03:37:32;;;;;;;;;;;4.00;99.90;;;;;;5061259;28;20262;-70
2022/01/23 03:39:58;;;;;;;;;;;4.00;99.90;;;;;;5062583;28;19916;-70
2022/01/23 03:42:25;;;;;;;;;;;4.00;99.90;;;;;;5062221;28;19919;-70
2022/01/23 03:45:48;;;;;;;;;;;4.00;99.90;;;;;;5062600;28;19975;-70
2022/01/23 03:47:53;;;;;;;;;;;3.90;99.90;;;;;;5061067;28;20092;-70
2022/01/23 03:50:19;;;;;;;;;;;4.10;99.90;;;;;;5062663;28;19915;-70
2022/01/23 03:52:45;;;;;;;;;;;4.10;99.90;;;;;;5062472;28;20123;-70
2022/01/23 03:55:11;;;;;;;;;;;4.00;99.90;;;;;;5062473;28;19909;-70
2022/01/23 03:57:37;;;;;;;;;;;4.00;99.90;;;;;;5060917;28;19908;-70
2022/01/23 04:00:04;;;;;;;;;;;4.00;99.90;;;;;;5061314;28;19915;-70
2022/01/23 04:02:29;;;;;;;;;;;4.00;99.90;;;;;;5061281;28;20202;-71
2022/01/23 04:04:55;;;;;;;;;;;3.90;99.90;;;;;;5062372;28;19909;-70
2022/01/23 04:07:24;;;;;;;;;;;3.90;99.90;;;;;;5061977;28;20143;-71
2022/01/23 04:09:49;;;;;;;;;;;4.00;99.90;;;;;;5061981;28;19908;-71
2022/01/23 04:12:47;;;;;;;;;;;3.90;99.90;;;;;;5065360;28;19916;-70
2022/01/23 04:15:35;;;;;;;;;;;3.90;99.90;;;;;;5065439;28;19967;-71
2022/01/23 04:34:11;;;;;;;;;;;3.80;99.90;;;;;;5065634;28;19947;-71
2022/01/23 05:00:54;;;;;;;;;;;3.80;99.90;;;;;;5065085;28;19951;-70
2022/01/23 05:05:48;;;;;;;;;;;3.80;99.90;;;;;;5063954;28;19936;-71
2022/01/23 05:08:18;;;;;;;;;;;3.80;99.90;;;;;;5064703;28;20196;-71
2022/01/23 05:10:45;;;;;;;;;;;3.80;99.90;;;;;;5064861;28;19908;-71
2022/01/23 05:13:11;;;;;;;;;;;3.80;99.90;;;;;;5054421;28;19908;-70
2022/01/23 05:15:37;;;;;;;;;;;3.80;99.90;;;;;;5044831;28;19920;-70
2022/01/23 05:18:03;;;;;;;;;;;3.80;99.90;;;;;;5044400;28;19909;-70
2022/01/23 05:20:30;;;;;;;;;;;3.70;99.90;;;;;;5044910;28;19973;-70
2022/01/23 05:23:02;;;;;;;;;;;3.70;99.90;;;;;;5044030;28;19940;-72
2022/01/23 05:25:30;;;;;;;;;;;3.70;99.90;;;;;;5044410;28;20207;-71
2022/01/23 05:27:56;;;;;;;;;;;3.80;99.90;;;;;;5044184;28;19909;-71
2022/01/23 05:30:22;;;;;;;;;;;3.80;99.90;;;;;;5044602;28;19954;-70
2022/01/23 05:32:48;;;;;;;;;;;3.80;99.90;;;;;;5026917;28;19931;-69
2022/01/23 05:35:17;;;;;;;;;;;3.80;99.90;;;;;;5044463;28;19920;-68
2022/01/23 05:37:42;;;;;;;;;;;3.80;99.90;;;;;;5044093;28;19968;-68
2022/01/23 05:40:10;;;;;;;;;;;3.80;99.90;;;;;;5044197;28;19916;-69
2022/01/23 05:42:36;;;;;;;;;;;3.70;99.90;;;;;;5047754;28;19934;-69
2022/01/23 05:45:02;;;;;;;;;;;3.80;99.90;;;;;;5064286;28;19944;-68
2022/01/23 05:47:28;;;;;;;;;;;3.70;99.90;;;;;;5063825;28;19984;-68
2022/01/23 05:49:53;;;;;;;;;;;3.70;99.90;;;;;;5064260;28;20190;-71
2022/01/23 05:52:19;;;;;;;;;;;3.70;99.90;;;;;;5064070;28;20204;-70
2022/01/23 05:54:45;;;;;;;;;;;3.80;99.90;;;;;;5063894;28;19909;-71
2022/01/23 05:57:11;;;;;;;;;;;3.70;99.90;;;;;;5063783;28;20122;-72
2022/01/23 05:59:37;;;;;;;;;;;3.70;99.90;;;;;;5062837;28;19909;-69
2022/01/23 06:02:02;;;;;;;;;;;3.70;99.90;;;;;;5063861;28;19920;-69
2022/01/23 06:04:28;;;;;;;;;;;3.70;99.90;;;;;;5064079;28;19908;-69
2022/01/23 06:06:56;;;;;;;;;;;3.70;99.90;;;;;;5063564;28;20107;-69
2022/01/23 06:09:22;;;;;;;;;;;3.70;99.90;;;;;;5063617;28;19915;-69
2022/01/23 06:11:48;;;;;;;;;;;3.70;99.90;;;;;;5063738;28;20115;-69
2022/01/23 06:14:13;;;;;;;;;;;3.70;99.90;;;;;;5062788;28;19916;-69
2022/01/23 06:16:39;;;;;;;;;;;3.70;99.90;;;;;;5063362;28;19916;-69
2022/01/23 06:19:05;;;;;;;;;;;3.70;99.90;;;;;;5063686;28;20154;-71
2022/01/23 06:21:31;;;;;;;;;;;3.70;99.90;;;;;;5063699;28;19948;-69
2022/01/23 06:24:04;;;;;;;;;;;3.70;99.90;;;;;;5063596;28;19976;-68
2022/01/23 06:26:45;;;;;;;;;;;3.70;99.90;;;;;;5062596;28;19916;-68
2022/01/23 06:29:12;;;;;;;;;;;3.70;99.90;;;;;;5063053;28;19913;-69
2022/01/23 06:31:38;;;;;;;;;;;3.70;99.90;;;;;;5379177;23;19929;-68
2022/01/23 06:34:05;;;;;;;;;;;3.70;99.90;;;;;;5027713;28;19925;-69
2022/01/23 06:36:32;;;;;;;;;;;3.70;99.90;;;;;;5026579;28;19917;-69
2022/01/23 06:38:58;;;;;;;;;;;3.70;99.90;;;;;;5037154;28;19909;-70
2022/01/23 06:41:24;;;;;;;;;;;3.70;99.90;;;;;;5039852;28;20222;-70
2022/01/23 06:43:50;;;;;;;;;;;3.70;99.90;;;;;;5036622;28;20021;-69
2022/01/23 06:46:15;;;;;;;;;;;3.70;99.90;;;;;;5051795;23;20012;-70
2022/01/23 06:48:41;;;;;;;;;;;3.70;99.90;;;;;;5038399;28;19951;-69
2022/01/23 06:51:07;;;;;;;;;;;3.70;99.90;;;;;;5036905;28;20202;-69
2022/01/23 06:53:33;;;;;;;;;;;3.70;99.90;;;;;;5014898;28;19929;-68
2022/01/23 06:55:58;;;;;;;;;;;3.70;99.90;;;;;;5036278;28;19933;-69
2022/01/23 06:58:24;;;;;;;;;;;3.70;99.90;;;;;;5041427;28;19909;-69
2022/01/23 07:00:49;;;;;;;;;;;3.70;99.90;;;;;;5041119;28;19988;-69
2022/01/23 07:03:15;;;;;;;;;;;3.60;99.90;;;;;;5041511;28;19909;-71
2022/01/23 07:05:41;;;;;;;;;;;3.70;99.90;;;;;;5041343;28;19913;-70
2022/01/23 07:08:07;;;;;;;;;;;3.60;99.90;;;;;;5041369;28;20107;-70
2022/01/23 07:10:32;;;;;;;;;;;3.60;99.90;;;;;;5023745;28;19909;-72
2022/01/23 07:12:58;;;;;;;;;;;3.60;99.90;;;;;;5041346;28;20142;-71
2022/01/23 07:15:24;;;;;;;;;;;3.60;99.90;;;;;;5041051;28;19909;-70
2022/01/23 07:17:50;;;;;;;;;;;3.60;99.90;;;;;;5023128;28;19976;-70
2022/01/23 07:20:16;;;;;;;;;;;3.60;99.90;;;;;;5040935;28;20154;-70
2022/01/23 07:22:41;;;;;;;;;;;3.60;99.90;;;;;;5018446;28;19940;-70
2022/01/23 07:25:07;;;;;;;;;;;3.60;99.90;;;;;;5003663;28;19909;-70
2022/01/23 07:27:41;;;;;;;;;;;3.60;99.90;;;;;;5003364;28;20359;-70
2022/01/23 07:30:10;;;;;;;;;;;3.60;99.90;;;;;;5003488;28;19910;-70
2022/01/23 07:32:36;;;;;;;;;;;3.60;99.90;;;;;;5003783;28;19910;-70
2022/01/23 07:35:01;;;;;;;;;;;3.60;99.90;;;;;;5020859;28;19909;-71
2022/01/23 07:37:27;;;;;;;;;;;3.60;99.90;;;;;;5021138;28;19909;-70
2022/01/23 07:39:53;;;;;;;;;;;3.60;99.90;;;;;;5021507;28;19950;-71
2022/01/23 07:42:18;;;;;;;;;;;3.60;99.90;;;;;;5021209;28;19921;-70
2022/01/23 07:44:44;;;;;;;;;;;3.60;99.90;;;;;;5022278;28;20391;-70
2022/01/23 07:47:10;;;;;;;;;;;3.70;99.90;;;;;;5024828;28;20194;-70
2022/01/23 07:49:36;;;;;;;;;;;3.70;99.90;;;;;;5025199;28;19980;-70
2022/01/23 07:52:04;;;;;;;;;;;3.70;99.90;;;;;;5024872;28;19996;-72
2022/01/23 07:54:29;;;;;;;;;;;3.80;99.90;;;;;;5007381;28;20199;-71
2022/01/23 07:56:55;;;;;;;;;;;3.90;99.90;;;;;;5023785;28;19952;-72
2022/01/23 07:59:21;;;;;;;;;;;3.90;99.90;;;;;;5025860;28;20046;-71
2022/01/23 08:01:46;;;;;;;;;;;4.00;99.90;;;;;;5025601;28;19913;-71
2022/01/23 08:04:12;;;;;;;;;;;4.00;99.90;;;;;;5022161;28;20008;-70
2022/01/23 08:06:41;;;;;;;;;;;4.00;99.90;;;;;;5002704;28;19926;-71
2022/01/23 08:09:08;;;;;;;;;;;4.10;99.90;;;;;;5017457;28;19924;-70
2022/01/23 08:11:34;;;;;;;;;;;4.10;99.90;;;;;;5015341;28;19909;-71
2022/01/23 08:14:00;;;;;;;;;;;4.10;99.90;;;;;;5007124;28;19916;-72
2022/01/23 08:16:26;;;;;;;;;;;4.10;99.90;;;;;;5001015;28;20001;-71
2022/01/23 08:18:52;;;;;;;;;;;4.20;99.90;;;;;;5024304;28;19913;-71
2022/01/23 08:21:17;;;;;;;;;;;4.20;99.80;;;;;;5006921;28;19993;-71
2022/01/23 08:23:43;;;;;;;;;;;4.20;99.80;;;;;;5024497;28;19909;-71
2022/01/23 08:26:09;;;;;;;;;;;4.20;99.40;;;;;;5024711;28;20103;-70
2022/01/23 08:28:35;;;;;;;;;;;4.30;99.40;;;;;;5024459;28;19944;-70
2022/01/23 08:31:00;;;;;;;;;;;4.30;99.50;;;;;;5006907;28;19977;-72
2022/01/23 08:33:27;;;;;;;;;;;4.40;99.00;;;;;;5007165;28;19918;-72
2022/01/23 08:35:56;;;;;;;;;;;4.40;98.90;;;;;;5024663;28;20199;-72
2022/01/23 08:38:23;;;;;;;;;;;4.40;99.20;;;;;;5000575;28;20019;-72
2022/01/23 08:41:49;;;;;;;;;;;4.40;99.20;;;;;;5001636;28;19922;-71
2022/01/23 08:43:34;;;;;;;;;;;4.40;99.20;;;;;;5009899;28;19964;-73
2022/01/23 08:46:00;;;;;;;;;;;4.50;99.00;;;;;;5004599;28;19913;-73
2022/01/23 08:48:25;;;;;;;;;;;4.40;98.90;;;;;;4970964;28;19977;-70
2022/01/23 08:50:51;;;;;;;;;;;4.50;98.70;;;;;;5004316;28;19978;-73
2022/01/23 08:53:17;;;;;;;;;;;4.50;98.80;;;;;;5005741;28;19909;-69
2022/01/23 08:55:42;;;;;;;;;;;4.50;98.80;;;;;;5025517;28;19925;-69
2022/01/23 08:58:08;;;;;;;;;;;4.60;98.60;;;;;;5021677;28;19909;-70
2022/01/23 09:00:34;;;;;;;;;;;4.60;98.60;;;;;;5023876;28;19910;-71
2022/01/23 09:02:59;;;;;;;;;;;4.60;98.50;;;;;;5024014;28;19910;-71
2022/01/23 09:05:26;;;;;;;;;;;4.70;98.60;;;;;;5024028;28;19945;-72
2022/01/23 09:07:52;;;;;;;;;;;4.80;98.40;;;;;;5023114;28;19966;-69
2022/01/23 09:10:25;;;;;;;;;;;4.80;98.00;;;;;;5023527;28;19948;-69
2022/01/23 09:13:11;;;;;;;;;;;4.90;97.70;;;;;;5006913;28;20187;-69
2022/01/23 09:15:37;;;;;;;;;;;4.90;97.80;;;;;;5004206;28;20112;-70
2022/01/23 09:18:03;;;;;;;;;;;5.00;97.20;;;;;;5003620;28;19909;-70
2022/01/23 09:20:28;;;;;;;;;;;5.10;97.40;;;;;;5002413;28;19909;-70
2022/01/23 09:22:54;;;;;;;;;;;5.20;97.10;;;;;;5003233;28;20112;-70
2022/01/23 09:25:22;;;;;;;;;;;5.10;96.30;;;;;;4985851;28;20255;-70
2022/01/23 09:27:48;;;;;;;;;;;5.20;96.20;;;;;;5003673;28;20003;-70
2022/01/23 09:30:18;;;;;;;;;;;5.30;96.50;;;;;;5001103;28;19909;-70
2022/01/23 09:32:45;;;;;;;;;;;5.20;96.40;;;;;;5003333;28;19917;-70
2022/01/23 09:35:11;;;;;;;;;;;5.20;96.40;;;;;;5003645;28;19957;-70
2022/01/23 09:37:37;;;;;;;;;;;5.30;96.10;;;;;;4986092;28;19964;-70
2022/01/23 09:40:05;;;;;;;;;;;5.40;96.10;;;;;;5003303;28;19909;-68
2022/01/23 09:42:51;;;;;;;;;;;5.40;95.50;;;;;;4986103;28;19929;-69
2022/01/23 09:45:17;;;;;;;;;;;5.50;95.90;;;;;;4989221;28;19917;-73
2022/01/23 09:47:43;;;;;;;;;;;5.70;95.30;;;;;;5005171;28;19917;-72
2022/01/23 09:50:10;;;;;;;;;;;5.80;95.40;;;;;;5022746;28;19981;-73
2022/01/23 09:52:36;;;;;;;;;;;5.90;95.50;;;;;;5005016;28;20219;-73
2022/01/23 09:55:08;;;;;;;;;;;6.00;95.20;;;;;;5022435;28;19909;-73
2022/01/23 09:57:45;;;;;;;;;;;6.10;94.10;;;;;;5022530;28;20251;-72
2022/01/23 10:00:13;;;;;;;;;;;6.00;94.10;;;;;;5021345;28;19947;-72
2022/01/23 10:02:38;;;;;;;;;;;6.20;93.80;;;;;;5004796;28;19913;-72
2022/01/23 10:05:04;;;;;;;;;;;6.00;93.80;;;;;;5021248;28;19977;-72
2022/01/23 10:07:31;;;;;;;;;;;6.00;93.80;;;;;;4988406;28;19917;-72
2022/01/23 10:10:09;;;;;;;;;;;6.00;94.30;;;;;;5006232;28;19909;-66
2022/01/23 10:12:46;;;;;;;;;;;6.10;94.60;;;;;;5022018;28;20330;-66
2022/01/23 10:15:12;;;;;;;;;;;6.10;94.50;;;;;;5001049;28;20231;-66
2022/01/23 10:17:38;;;;;;;;;;;6.10;93.90;;;;;;5002506;28;19917;-66
2022/01/23 10:20:05;;;;;;;;;;;6.30;94.80;;;;;;4969096;28;19910;-66
2022/01/23 10:22:32;;;;;;;;;;;6.40;93.50;;;;;;5002166;28;19969;-66
2022/01/23 10:25:28;;;;;;;;;;;6.40;93.60;;;;;;5001995;28;20195;-66
2022/01/23 10:28:06;;;;;;;;;;;6.40;93.00;;;;;;5001706;28;19909;-66
2022/01/23 10:30:54;;;;;;;;;;;6.40;93.10;;;;;;5002144;28;20093;-66
2022/01/23 10:33:24;;;;;;;;;;;6.30;93.50;;;;;;5003006;28;19944;-72
2022/01/23 10:36:02;;;;;;;;;;;6.40;93.30;;;;;;5002475;28;19921;-71
2022/01/23 10:38:56;;;;;;;;;;;6.40;93.50;;;;;;5002097;28;19914;-71
2022/01/23 10:49:53;;;;;;;;;;;6.40;92.60;;;;;;5002569;28;20219;-71
2022/01/23 10:52:26;;;;;;;;;;;6.30;92.70;;;;;;5002030;28;19910;-71
2022/01/23 10:54:51;;;;;;;;;;;6.40;93.10;;;;;;4985082;28;19910;-71
2022/01/23 10:57:17;;;;;;;;;;;6.30;93.20;;;;;;5001982;28;19910;-71
2022/01/23 10:59:45;;;;;;;;;;;6.40;92.70;;;;;;5002258;28;20196;-71
2022/01/23 11:02:21;;;;;;;;;;;6.50;92.70;;;;;;5000602;28;19928;-71
2022/01/23 11:05:01;;;;;;;;;;;6.40;92.40;;;;;;4985587;28;19914;-71
2022/01/23 11:07:27;;;;;;;;;;;6.40;92.60;;;;;;4985671;28;19910;-71
2022/01/23 11:10:11;;;;;;;;;;;6.40;92.70;;;;;;5001833;28;19917;-71
2022/01/23 11:18:00;;;;;;;;;;;6.60;91.30;;;;;;5021718;28;19972;-71
2022/01/23 11:20:30;;;;;;;;;;;6.50;91.50;;;;;;5006109;28;19917;-71
2022/01/23 11:23:17;;;;;;;;;;;6.40;91.90;;;;;;5025351;28;20020;-72
2022/01/23 11:26:07;;;;;;;;;;;6.50;92.20;;;;;;5019871;28;20208;-72
2022/01/23 11:28:37;;;;;;;;;;;6.60;91.60;;;;;;5000590;28;19921;-68
2022/01/23 11:31:06;;;;;;;;;;;6.50;91.60;;;;;;5019934;28;19971;-68
2022/01/23 11:33:31;;;;;;;;;;;6.50;92.00;;;;;;5025461;28;19909;-68
2022/01/23 11:35:57;;;;;;;;;;;6.50;91.90;;;;;;5025221;28;20230;-69
2022/01/23 11:38:24;;;;;;;;;;;6.70;91.70;;;;;;5009774;28;19917;-69
2022/01/23 11:54:46;;;;;;;;;;;7.00;91.50;;;;;;5024602;28;20100;-69
2022/01/23 11:57:34;;;;;;;;;;;6.90;91.80;;;;;;5007339;28;19976;-69
2022/01/23 12:00:17;;;;;;;;;;;6.80;91.30;;;;;;5024870;28;19984;-70
2022/01/23 12:02:44;;;;;;;;;;;6.70;91.40;;;;;;5007149;28;19917;-68
2022/01/23 12:05:13;;;;;;;;;;;6.70;91.80;;;;;;5024803;28;19957;-68
2022/01/23 12:07:40;;;;;;;;;;;6.80;92.10;;;;;;5024748;28;19941;-68
2022/01/23 12:10:09;;;;;;;;;;;6.80;91.80;;;;;;4990949;28;19917;-69
2022/01/23 12:12:44;;;;;;;;;;;6.80;91.40;;;;;;5010185;28;19913;-68
2022/01/23 12:18:21;;;;;;;;;;;6.80;91.80;;;;;;5017933;28;19944;-68
2022/01/23 12:20:48;;;;;;;;;;;6.70;91.20;;;;;;5010092;28;19913;-68
2022/01/23 12:23:16;;;;;;;;;;;6.90;91.10;;;;;;5023256;28;19909;-67
2022/01/23 12:25:50;;;;;;;;;;;6.80;91.00;;;;;;4982809;28;19921;-68
2022/01/23 12:28:28;;;;;;;;;;;6.70;90.50;;;;;;5007699;28;19921;-68
2022/01/23 12:31:12;;;;;;;;;;;6.80;90.30;;;;;;5006861;28;19909;-68
2022/01/23 12:33:41;;;;;;;;;;;6.80;90.10;;;;;;5006480;28;19909;-68
2022/01/23 12:36:13;;;;;;;;;;;6.90;89.60;;;;;;5024105;28;19909;-68
2022/01/23 12:38:41;;;;;;;;;;;6.90;89.80;;;;;;5023815;28;19980;-68
2022/01/23 12:41:21;;;;;;;;;;;7.10;89.90;;;;;;5006235;28;20188;-69
2022/01/23 12:43:47;;;;;;;;;;;7.30;90.20;;;;;;5024062;28;19910;-69
2022/01/23 12:46:16;;;;;;;;;;;7.40;89.10;;;;;;5023967;28;19956;-68
2022/01/23 12:48:43;;;;;;;;;;;7.50;87.70;;;;;;5006539;28;20266;-69
2022/01/23 12:51:12;;;;;;;;;;;7.40;88.20;;;;;;5023826;28;20140;-69
2022/01/23 12:53:58;;;;;;;;;;;7.50;88.30;;;;;;5006094;28;19909;-69
2022/01/23 12:56:32;;;;;;;;;;;7.30;89.20;;;;;;5023768;28;19910;-69
2022/01/23 12:59:05;;;;;;;;;;;7.30;89.20;;;;;;5006310;28;19909;-69
2022/01/23 13:01:31;;;;;;;;;;;7.20;89.10;;;;;;5007095;28;19943;-69
2022/01/23 13:04:01;;;;;;;;;;;7.30;89.30;;;;;;5023247;28;19909;-69
2022/01/23 13:06:39;;;;;;;;;;;7.10;90.00;;;;;;4990974;28;19909;-69
2022/01/23 13:09:46;;;;;;;;;;;6.80;90.60;;;;;;5006905;28;19909;-69
2022/01/23 13:12:17;;;;;;;;;;;6.80;90.80;;;;;;5023994;28;19925;-69
2022/01/23 13:15:21;;;;;;;;;;;6.50;91.20;;;;;;5006320;28;20139;-69
2022/01/23 13:32:01;;;;;;;;;;;6.30;91.80;;;;;;5023302;28;19984;-69
2022/01/23 13:34:35;;;;;;;;;;;6.40;91.70;;;;;;5008531;28;20208;-68
2022/01/23 13:37:15;;;;;;;;;;;6.40;90.60;;;;;;5016806;28;19917;-69
2022/01/23 13:39:53;;;;;;;;;;;6.40;90.40;;;;;;5026477;28;19929;-69
2022/01/23 13:51:18;;;;;;;;;;;6.40;91.10;;;;;;4985260;28;19910;-69
2022/01/23 13:59:16;;;;;;;;;;;6.50;89.40;;;;;;4991317;28;19952;-69
2022/01/23 14:01:56;;;;;;;;;;;6.40;89.50;;;;;;5005126;28;19917;-69
2022/01/23 14:04:23;;;;;;;;;;;6.40;88.30;;;;;;5004884;28;19963;-69
2022/01/23 14:06:49;;;;;;;;;;;6.30;89.10;;;;;;5004753;28;19909;-69
2022/01/23 14:09:15;;;;;;;;;;;6.30;89.00;;;;;;5004201;28;19989;-69
2022/01/23 14:11:41;;;;;;;;;;;6.30;89.20;;;;;;4988316;28;19918;-69
2022/01/23 14:14:26;;;;;;;;;;;6.20;90.00;;;;;;5022171;28;19910;-69
2022/01/23 14:16:53;;;;;;;;;;;6.30;90.30;;;;;;5006887;28;20168;-69
2022/01/23 14:19:28;;;;;;;;;;;6.20;89.40;;;;;;5020986;28;20211;-70
2022/01/23 14:21:59;;;;;;;;;;;6.20;88.50;;;;;;5020473;28;19984;-69
2022/01/23 14:24:28;;;;;;;;;;;6.10;88.30;;;;;;5004570;28;19909;-69
2022/01/23 14:27:08;;;;;;;;;;;6.10;89.40;;;;;;5021891;28;19917;-70
2022/01/23 14:29:54;;;;;;;;;;;6.20;88.30;;;;;;5022002;28;19971;-69
2022/01/23 14:32:31;;;;;;;;;;;6.20;88.90;;;;;;5021289;28;19948;-69
2022/01/23 14:35:08;;;;;;;;;;;6.20;89.50;;;;;;4997347;28;19985;-69
2022/01/23 14:37:34;;;;;;;;;;;6.10;89.30;;;;;;4984841;28;19933;-69
2022/01/23 14:40:12;;;;;;;;;;;6.00;89.30;;;;;;5017334;28;20196;-69
2022/01/23 14:42:37;;;;;;;;;;;6.00;89.60;;;;;;5021294;28;20151;-69
2022/01/23 14:45:05;;;;;;;;;;;6.10;89.10;;;;;;5004350;28;19917;-69
2022/01/23 14:47:38;;;;;;;;;;;6.00;88.80;;;;;;5021943;28;19921;-69
2022/01/23 14:50:09;;;;;;;;;;;6.00;89.60;;;;;;5021857;28;19975;-69
2022/01/23 14:52:36;;;;;;;;;;;6.00;89.90;;;;;;5004325;28;20143;-69
2022/01/23 14:55:02;;;;;;;;;;;6.00;90.30;;;;;;5020247;28;19913;-69
2022/01/23 14:57:30;;;;;;;;;;;5.90;90.40;;;;;;5021691;28;19920;-69
2022/01/23 14:59:58;;;;;;;;;;;5.90;90.70;;;;;;5004276;28;19918;-69
2022/01/23 15:02:23;;;;;;;;;;;5.90;91.00;;;;;;5021692;28;20201;-69
2022/01/23 15:04:49;;;;;;;;;;;5.90;90.40;;;;;;5004927;28;20024;-69
2022/01/23 15:07:16;;;;;;;;;;;5.80;90.50;;;;;;5022400;28;19968;-70
2022/01/23 15:09:44;;;;;;;;;;;5.70;90.50;;;;;;5004264;28;19917;-70
2022/01/23 15:12:10;;;;;;;;;;;5.70;90.50;;;;;;4987968;28;20065;-69
2022/01/23 15:14:35;;;;;;;;;;;5.80;90.60;;;;;;5021178;28;19918;-70
2022/01/23 15:17:01;;;;;;;;;;;5.80;90.40;;;;;;5004614;28;20359;-70
2022/01/23 15:19:27;;;;;;;;;;;5.80;90.80;;;;;;5021695;28;19920;-70
2022/01/23 15:21:52;;;;;;;;;;;5.70;90.70;;;;;;5021087;28;19989;-70
2022/01/23 15:24:18;;;;;;;;;;;5.70;90.30;;;;;;5021309;28;19985;-70
2022/01/23 15:26:44;;;;;;;;;;;5.60;90.20;;;;;;5021536;28;19914;-70
2022/01/23 15:29:10;;;;;;;;;;;5.60;90.10;;;;;;5003826;28;19928;-70
2022/01/23 15:31:37;;;;;;;;;;;5.50;89.70;;;;;;5019820;28;19984;-70
2022/01/23 15:34:03;;;;;;;;;;;5.60;89.10;;;;;;5017667;28;19918;-70
2022/01/23 15:36:29;;;;;;;;;;;5.50;89.10;;;;;;5015557;28;20124;-68
2022/01/23 15:38:55;;;;;;;;;;;5.60;88.50;;;;;;4999974;28;19925;-69
2022/01/23 15:41:21;;;;;;;;;;;5.50;89.10;;;;;;5000033;28;19922;-68
2022/01/23 15:43:46;;;;;;;;;;;5.50;89.30;;;;;;5000113;28;20200;-70
2022/01/23 15:46:13;;;;;;;;;;;5.50;89.90;;;;;;5001187;28;19913;-69
2022/01/23 15:48:39;;;;;;;;;;;5.50;90.10;;;;;;5006303;28;19955;-69
2022/01/23 15:51:06;;;;;;;;;;;5.40;90.00;;;;;;5003307;28;20315;-71
2022/01/23 15:53:32;;;;;;;;;;;5.40;90.00;;;;;;5021246;28;20195;-77
2022/01/23 15:55:58;;;;;;;;;;;5.40;89.60;;;;;;4983273;28;19941;-76
2022/01/23 15:58:27;;;;;;;;;;;5.40;90.10;;;;;;4983847;28;19910;-73
2022/01/23 16:00:52;;;;;;;;;;;5.40;90.10;;;;;;5000151;28;19917;-68
2022/01/23 16:03:18;;;;;;;;;;;5.40;90.10;;;;;;5000998;28;20372;-69
2022/01/23 16:05:44;;;;;;;;;;;5.40;89.60;;;;;;5001943;28;19921;-71
2022/01/23 16:08:09;;;;;;;;;;;5.40;89.80;;;;;;5006419;28;20161;-72
2022/01/23 16:10:37;;;;;;;;;;;5.30;89.50;;;;;;5025233;28;19918;-71
2022/01/23 16:13:02;;;;;;;;;;;5.30;89.20;;;;;;5007242;28;19909;-70
2022/01/23 16:15:29;;;;;;;;;;;5.20;89.70;;;;;;5023382;28;19980;-68
2022/01/23 16:17:55;;;;;;;;;;;5.30;90.20;;;;;;5006114;28;19932;-67
2022/01/23 16:20:21;;;;;;;;;;;5.20;90.30;;;;;;5023266;28;20172;-70
2022/01/23 16:22:47;;;;;;;;;;;5.20;90.50;;;;;;5003093;28;19925;-72
2022/01/23 16:25:14;;;;;;;;;;;5.20;90.50;;;;;;4997480;28;19910;-70
2022/01/23 16:27:40;;;;;;;;;;;5.20;90.40;;;;;;4971512;28;20130;-70
2022/01/23 16:30:06;;;;;;;;;;;5.20;90.40;;;;;;4970778;28;19918;-74
2022/01/23 16:32:32;;;;;;;;;;;5.20;90.50;;;;;;4997945;28;19919;-73
2022/01/23 16:34:58;;;;;;;;;;;5.20;90.80;;;;;;5006474;28;20223;-73
2022/01/23 16:37:24;;;;;;;;;;;5.20;90.40;;;;;;5006179;28;19940;-73
2022/01/23 16:39:49;;;;;;;;;;;5.20;90.50;;;;;;5006267;28;19981;-67
2022/01/23 16:42:15;;;;;;;;;;;5.20;90.50;;;;;;5005871;28;19932;-73
2022/01/23 16:44:41;;;;;;;;;;;5.20;90.70;;;;;;5006108;28;19925;-73
2022/01/23 16:47:08;;;;;;;;;;;5.20;90.80;;;;;;5023725;28;20115;-74
2022/01/23 16:49:34;;;;;;;;;;;5.20;91.00;;;;;;5000509;28;20204;-74
2022/01/23 16:52:00;;;;;;;;;;;5.20;90.50;;;;;;4970162;28;19953;-74
2022/01/23 16:54:25;;;;;;;;;;;5.20;90.10;;;;;;4977432;28;19953;-74
2022/01/23 16:56:51;;;;;;;;;;;5.20;90.00;;;;;;5002131;28;20101;-74
2022/01/23 16:59:17;;;;;;;;;;;5.20;90.00;;;;;;4986372;28;19928;-75
2022/01/23 17:01:46;;;;;;;;;;;5.20;90.00;;;;;;4986026;28;19966;-74
2022/01/23 17:04:15;;;;;;;;;;;5.20;90.00;;;;;;5002005;28;20186;-74
2022/01/23 17:06:40;;;;;;;;;;;5.20;90.40;;;;;;5002390;28;19918;-74
2022/01/23 17:09:06;;;;;;;;;;;5.20;90.10;;;;;;4970012;28;19917;-74
2022/01/23 17:11:33;;;;;;;;;;;5.10;90.20;;;;;;4970275;28;19957;-74
2022/01/23 17:13:58;;;;;;;;;;;5.10;90.30;;;;;;4970045;28;19916;-74
2022/01/23 17:16:24;;;;;;;;;;;5.10;90.40;;;;;;5002460;28;19909;-73
2022/01/23 17:18:50;;;;;;;;;;;5.10;90.50;;;;;;5003800;28;20484;-74
2022/01/23 17:21:16;;;;;;;;;;;5.10;90.60;;;;;;5005128;28;19925;-73
2022/01/23 17:23:41;;;;;;;;;;;5.00;90.80;;;;;;5005549;28;20151;-69
2022/01/23 17:26:07;;;;;;;;;;;5.00;90.90;;;;;;5023020;28;19921;-73
2022/01/23 17:28:33;;;;;;;;;;;5.00;90.90;;;;;;5023374;28;19909;-73
2022/01/23 17:30:58;;;;;;;;;;;5.10;90.70;;;;;;5022723;28;20121;-74
2022/01/23 17:33:24;;;;;;;;;;;5.00;90.70;;;;;;5005739;28;19910;-72
2022/01/23 17:35:50;;;;;;;;;;;5.00;90.70;;;;;;5022076;28;19969;-72
2022/01/23 17:38:15;;;;;;;;;;;5.00;90.60;;;;;;5005073;28;19959;-72
2022/01/23 17:40:41;;;;;;;;;;;5.00;90.60;;;;;;5022613;28;19933;-72
2022/01/23 17:43:07;;;;;;;;;;;4.90;90.80;;;;;;5003054;28;19917;-72
2022/01/23 17:45:49;;;;;;;;;;;5.00;90.80;;;;;;5004943;28;19917;-73
2022/01/23 17:50:56;;;;;;;;;;;4.90;91.00;;;;;;4987527;28;19918;-73
2022/01/23 17:53:21;;;;;;;;;;;4.90;91.20;;;;;;5002665;28;20263;-73
2022/01/23 17:55:47;;;;;;;;;;;4.90;91.30;;;;;;5003071;28;19909;-73
2022/01/23 17:58:13;;;;;;;;;;;4.90;91.20;;;;;;4985353;28;20156;-73